Accueil
METAR-TAF:

METAR-TAF

Aéroports :

Foz do Iguaçu, Paraná, Brésil

latitude: 25-31S, longitude: 054-35W, altitude: 180 m

Observation

Le bulletin a été fait il y a 1 heure et 20 minutes, à 22:00 UTC
Vent 4 kt de est
Température 23°C
Humidité 94%
Pression 1014 hPa
Visibilité 10 km ou plus
pas de nuages en-dessous de 1500 mètres et pas de cumulonimbus.

METAR: SBFI 242200Z 10004KT CAVOK 23/22 Q1014

Heure: 20:20 (23:20 UTC)

Prévision

Le bulletin a été fait il y a 7 heures et 50 minutes, à 15:30 UTC
Prévision valable du 24 à 18 UTC au 25 à 18 UTC
Vent 5 kt de est/nord-est
Visibilité 10 km ou plus
pas de nuages en-dessous de 1500 mètres et pas de cumulonimbus.

TAF: SBFI 241530Z 2418/2518 07005KT CAVOK TN21/2510Z TX29/2518Z RMK PD N

Observations et prévisions météorologiques de plus de 4000 aéroports (messages METAR et TAF).

Les stations disponibles sont représentées par des disques jaunes et rouges sur la carte.

Passer la souris dessus pour voir le nom de la station.

Cliquer dessus pour voir les observations et prévisions météorologiques.

Pour changer de carte: cliquez sur les boutons verts avec une croix noire pour zoomer, sur le bouton vert avec un tiret pour effectuer un zoom arrière, ou sur les flèches vertes pour les cartes adjacentes.


METAR-TAF: